sensor_id;sensor_type;location;lat;lon;timestamp;P1;durP1;ratioP1;P2;durP2;ratioP2
26502;SDS011;14177;51.520;6.764;2024-03-23T00:52:27;9.25;;;2.35;;
26502;SDS011;14177;51.520;6.764;2024-03-23T00:54:53;9.23;;;2.67;;
26502;SDS011;14177;51.520;6.764;2024-03-23T00:57:19;10.27;;;2.83;;
26502;SDS011;14177;51.520;6.764;2024-03-23T00:59:45;8.25;;;2.35;;
26502;SDS011;14177;51.520;6.764;2024-03-23T01:02:11;8.40;;;2.10;;
26502;SDS011;14177;51.520;6.764;2024-03-23T01:04:37;10.20;;;2.13;;
26502;SDS011;14177;51.520;6.764;2024-03-23T01:07:03;8.55;;;2.05;;
26502;SDS011;14177;51.520;6.764;2024-03-23T01:09:29;9.20;;;2.30;;
26502;SDS011;14177;51.520;6.764;2024-03-23T01:11:55;11.00;;;2.17;;
26502;SDS011;14177;51.520;6.764;2024-03-23T01:14:21;3.90;;;1.40;;
26502;SDS011;14177;51.520;6.764;2024-03-23T01:16:47;6.75;;;1.85;;
26502;SDS011;14177;51.520;6.764;2024-03-23T01:19:13;5.20;;;1.67;;
26502;SDS011;14177;51.520;6.764;2024-03-23T01:21:39;6.95;;;2.03;;
26502;SDS011;14177;51.520;6.764;2024-03-23T01:24:06;6.82;;;1.60;;
26502;SDS011;14177;51.520;6.764;2024-03-23T01:26:34;7.60;;;1.73;;
26502;SDS011;14177;51.520;6.764;2024-03-23T01:29:00;4.72;;;1.73;;
26502;SDS011;14177;51.520;6.764;2024-03-23T01:31:26;4.97;;;1.70;;
26502;SDS011;14177;51.520;6.764;2024-03-23T01:33:52;5.53;;;1.80;;
26502;SDS011;14177;51.520;6.764;2024-03-23T01:36:18;5.07;;;1.50;;
26502;SDS011;14177;51.520;6.764;2024-03-23T01:38:45;8.65;;;1.83;;
26502;SDS011;14177;51.520;6.764;2024-03-23T01:41:11;8.43;;;1.83;;
26502;SDS011;14177;51.520;6.764;2024-03-23T01:43:37;7.65;;;1.50;;
26502;SDS011;14177;51.520;6.764;2024-03-23T01:46:03;7.25;;;1.70;;
26502;SDS011;14177;51.520;6.764;2024-03-23T01:48:29;9.48;;;1.45;;
26502;SDS011;14177;51.520;6.764;2024-03-23T01:50:55;7.53;;;1.60;;
26502;SDS011;14177;51.520;6.764;2024-03-23T01:53:21;6.43;;;1.58;;
26502;SDS011;14177;51.520;6.764;2024-03-23T01:55:49;3.72;;;1.27;;
26502;SDS011;14177;51.520;6.764;2024-03-23T01:58:17;8.43;;;1.88;;
26502;SDS011;14177;51.520;6.764;2024-03-23T02:00:43;5.40;;;1.38;;
26502;SDS011;14177;51.520;6.764;2024-03-23T02:03:21;7.50;;;1.70;;
26502;SDS011;14177;51.520;6.764;2024-03-23T02:05:55;3.05;;;1.13;;
26502;SDS011;14177;51.520;6.764;2024-03-23T02:08:22;7.05;;;1.63;;
26502;SDS011;14177;51.520;6.764;2024-03-23T02:10:49;6.10;;;1.60;;
26502;SDS011;14177;51.520;6.764;2024-03-23T02:13:17;7.68;;;1.77;;
26502;SDS011;14177;51.520;6.764;2024-03-23T02:15:44;7.03;;;2.05;;
26502;SDS011;14177;51.520;6.764;2024-03-23T02:18:10;5.25;;;1.23;;
26502;SDS011;14177;51.520;6.764;2024-03-23T02:20:37;4.53;;;1.67;;
26502;SDS011;14177;51.520;6.764;2024-03-23T02:23:04;5.93;;;1.50;;
26502;SDS011;14177;51.520;6.764;2024-03-23T02:25:33;3.78;;;1.33;;
26502;SDS011;14177;51.520;6.764;2024-03-23T02:27:59;8.68;;;2.13;;
26502;SDS011;14177;51.520;6.764;2024-03-23T02:30:26;7.00;;;1.63;;
26502;SDS011;14177;51.520;6.764;2024-03-23T02:32:52;6.15;;;1.67;;
26502;SDS011;14177;51.520;6.764;2024-03-23T02:35:18;4.03;;;1.80;;
26502;SDS011;14177;51.520;6.764;2024-03-23T02:37:45;5.80;;;1.42;;
26502;SDS011;14177;51.520;6.764;2024-03-23T02:40:14;7.38;;;1.40;;
26502;SDS011;14177;51.520;6.764;2024-03-23T02:42:41;4.93;;;1.50;;
26502;SDS011;14177;51.520;6.764;2024-03-23T02:45:07;4.00;;;1.58;;
26502;SDS011;14177;51.520;6.764;2024-03-23T02:47:33;6.05;;;1.50;;
26502;SDS011;14177;51.520;6.764;2024-03-23T02:49:59;4.38;;;1.20;;
26502;SDS011;14177;51.520;6.764;2024-03-23T02:52:26;5.97;;;1.50;;
26502;SDS011;14177;51.520;6.764;2024-03-23T02:54:52;5.85;;;1.95;;
26502;SDS011;14177;51.520;6.764;2024-03-23T02:57:18;5.32;;;1.67;;
26502;SDS011;14177;51.520;6.764;2024-03-23T02:59:44;3.28;;;1.42;;
26502;SDS011;14177;51.520;6.764;2024-03-23T03:02:11;4.43;;;1.30;;
26502;SDS011;14177;51.520;6.764;2024-03-23T03:04:38;6.45;;;1.70;;
26502;SDS011;14177;51.520;6.764;2024-03-23T03:07:04;10.77;;;2.15;;
26502;SDS011;14177;51.520;6.764;2024-03-23T03:09:31;5.40;;;1.80;;
26502;SDS011;14177;51.520;6.764;2024-03-23T03:11:58;8.27;;;1.77;;
26502;SDS011;14177;51.520;6.764;2024-03-23T03:14:24;6.03;;;1.65;;
26502;SDS011;14177;51.520;6.764;2024-03-23T03:16:50;11.18;;;1.85;;
26502;SDS011;14177;51.520;6.764;2024-03-23T03:19:16;10.60;;;1.65;;
26502;SDS011;14177;51.520;6.764;2024-03-23T03:21:42;8.77;;;1.73;;
26502;SDS011;14177;51.520;6.764;2024-03-23T03:24:08;7.07;;;2.55;;
26502;SDS011;14177;51.520;6.764;2024-03-23T03:26:34;7.20;;;2.15;;
26502;SDS011;14177;51.520;6.764;2024-03-23T03:29:00;8.60;;;1.52;;
26502;SDS011;14177;51.520;6.764;2024-03-23T03:31:28;8.07;;;1.67;;
26502;SDS011;14177;51.520;6.764;2024-03-23T03:33:54;4.40;;;1.45;;
26502;SDS011;14177;51.520;6.764;2024-03-23T03:36:20;7.85;;;1.42;;
26502;SDS011;14177;51.520;6.764;2024-03-23T03:38:46;5.82;;;1.45;;
26502;SDS011;14177;51.520;6.764;2024-03-23T03:41:12;6.85;;;1.77;;
26502;SDS011;14177;51.520;6.764;2024-03-23T03:43:38;7.05;;;1.75;;
26502;SDS011;14177;51.520;6.764;2024-03-23T03:46:04;5.38;;;1.73;;
26502;SDS011;14177;51.520;6.764;2024-03-23T03:48:30;11.52;;;1.98;;
26502;SDS011;14177;51.520;6.764;2024-03-23T03:50:56;4.05;;;1.50;;
26502;SDS011;14177;51.520;6.764;2024-03-23T03:53:22;6.80;;;1.70;;
26502;SDS011;14177;51.520;6.764;2024-03-23T03:55:48;8.48;;;1.55;;
26502;SDS011;14177;51.520;6.764;2024-03-23T03:58:14;4.32;;;1.55;;
26502;SDS011;14177;51.520;6.764;2024-03-23T04:00:40;7.28;;;1.83;;
26502;SDS011;14177;51.520;6.764;2024-03-23T04:03:06;6.80;;;1.83;;
26502;SDS011;14177;51.520;6.764;2024-03-23T04:05:32;5.03;;;1.80;;
26502;SDS011;14177;51.520;6.764;2024-03-23T04:07:58;7.55;;;2.13;;
26502;SDS011;14177;51.520;6.764;2024-03-23T04:10:24;3.97;;;1.92;;
26502;SDS011;14177;51.520;6.764;2024-03-23T04:12:52;7.75;;;1.95;;
26502;SDS011;14177;51.520;6.764;2024-03-23T04:15:19;8.95;;;2.70;;
26502;SDS011;14177;51.520;6.764;2024-03-23T04:17:46;9.98;;;2.40;;
26502;SDS011;14177;51.520;6.764;2024-03-23T04:20:12;8.75;;;2.17;;
26502;SDS011;14177;51.520;6.764;2024-03-23T04:22:42;7.75;;;2.53;;
26502;SDS011;14177;51.520;6.764;2024-03-23T04:25:09;9.48;;;2.53;;
26502;SDS011;14177;51.520;6.764;2024-03-23T04:27:36;11.13;;;2.67;;
26502;SDS011;14177;51.520;6.764;2024-03-23T04:30:03;8.02;;;2.05;;
26502;SDS011;14177;51.520;6.764;2024-03-23T04:32:35;8.88;;;2.53;;
26502;SDS011;14177;51.520;6.764;2024-03-23T04:35:02;9.48;;;2.30;;
26502;SDS011;14177;51.520;6.764;2024-03-23T04:37:34;3.95;;;1.77;;
26502;SDS011;14177;51.520;6.764;2024-03-23T04:40:00;4.45;;;2.70;;
26502;SDS011;14177;51.520;6.764;2024-03-23T04:42:28;8.30;;;2.47;;
26502;SDS011;14177;51.520;6.764;2024-03-23T04:44:55;6.60;;;2.05;;
26502;SDS011;14177;51.520;6.764;2024-03-23T04:47:21;8.82;;;2.53;;
26502;SDS011;14177;51.520;6.764;2024-03-23T04:49:48;9.15;;;3.08;;
26502;SDS011;14177;51.520;6.764;2024-03-23T04:52:15;12.35;;;3.35;;
26502;SDS011;14177;51.520;6.764;2024-03-23T04:54:42;8.43;;;2.63;;
26502;SDS011;14177;51.520;6.764;2024-03-23T04:57:09;9.18;;;2.78;;
26502;SDS011;14177;51.520;6.764;2024-03-23T04:59:35;7.93;;;2.55;;
26502;SDS011;14177;51.520;6.764;2024-03-23T05:02:01;11.18;;;2.80;;
26502;SDS011;14177;51.520;6.764;2024-03-23T05:04:28;12.85;;;3.13;;
26502;SDS011;14177;51.520;6.764;2024-03-23T05:06:54;8.10;;;3.00;;
26502;SDS011;14177;51.520;6.764;2024-03-23T05:09:20;9.25;;;2.55;;
26502;SDS011;14177;51.520;6.764;2024-03-23T05:11:47;7.20;;;2.58;;
26502;SDS011;14177;51.520;6.764;2024-03-23T05:14:14;8.20;;;2.50;;
26502;SDS011;14177;51.520;6.764;2024-03-23T05:16:40;9.43;;;3.22;;
26502;SDS011;14177;51.520;6.764;2024-03-23T05:19:06;12.65;;;3.65;;
26502;SDS011;14177;51.520;6.764;2024-03-23T05:21:32;10.85;;;3.75;;
26502;SDS011;14177;51.520;6.764;2024-03-23T05:23:59;9.10;;;3.20;;
26502;SDS011;14177;51.520;6.764;2024-03-23T05:26:25;12.15;;;4.00;;
26502;SDS011;14177;51.520;6.764;2024-03-23T05:28:50;9.18;;;3.55;;
26502;SDS011;14177;51.520;6.764;2024-03-23T05:31:23;10.73;;;3.35;;
26502;SDS011;14177;51.520;6.764;2024-03-23T05:33:54;11.00;;;3.40;;
26502;SDS011;14177;51.520;6.764;2024-03-23T05:36:20;11.20;;;3.90;;
26502;SDS011;14177;51.520;6.764;2024-03-23T05:38:46;8.73;;;3.05;;
26502;SDS011;14177;51.520;6.764;2024-03-23T05:41:12;7.88;;;3.08;;
26502;SDS011;14177;51.520;6.764;2024-03-23T05:43:38;8.50;;;3.30;;
26502;SDS011;14177;51.520;6.764;2024-03-23T05:46:04;7.65;;;3.00;;
26502;SDS011;14177;51.520;6.764;2024-03-23T05:48:30;7.80;;;2.97;;
26502;SDS011;14177;51.520;6.764;2024-03-23T05:50:57;11.57;;;3.05;;
26502;SDS011;14177;51.520;6.764;2024-03-23T05:53:23;10.05;;;2.90;;
26502;SDS011;14177;51.520;6.764;2024-03-23T05:56:00;14.30;;;2.80;;
26502;SDS011;14177;51.520;6.764;2024-03-23T05:58:31;10.07;;;3.10;;
26502;SDS011;14177;51.520;6.764;2024-03-23T06:00:58;9.05;;;3.20;;
26502;SDS011;14177;51.520;6.764;2024-03-23T06:03:26;10.07;;;2.90;;
26502;SDS011;14177;51.520;6.764;2024-03-23T06:05:54;6.95;;;3.10;;
26502;SDS011;14177;51.520;6.764;2024-03-23T06:08:20;11.85;;;3.20;;
26502;SDS011;14177;51.520;6.764;2024-03-23T06:10:47;12.90;;;3.20;;
26502;SDS011;14177;51.520;6.764;2024-03-23T06:13:13;11.07;;;3.17;;
26502;SDS011;14177;51.520;6.764;2024-03-23T06:15:40;9.13;;;3.70;;
26502;SDS011;14177;51.520;6.764;2024-03-23T06:18:06;7.15;;;2.75;;
26502;SDS011;14177;51.520;6.764;2024-03-23T06:20:33;12.00;;;2.75;;
26502;SDS011;14177;51.520;6.764;2024-03-23T06:23:02;6.93;;;3.17;;
26502;SDS011;14177;51.520;6.764;2024-03-23T06:25:29;6.65;;;2.70;;
26502;SDS011;14177;51.520;6.764;2024-03-23T06:27:55;8.85;;;2.90;;
26502;SDS011;14177;51.520;6.764;2024-03-23T06:30:23;6.57;;;2.70;;
26502;SDS011;14177;51.520;6.764;2024-03-23T06:32:49;11.63;;;3.10;;
26502;SDS011;14177;51.520;6.764;2024-03-23T06:35:15;12.70;;;3.20;;
26502;SDS011;14177;51.520;6.764;2024-03-23T06:37:41;15.23;;;2.72;;
26502;SDS011;14177;51.520;6.764;2024-03-23T06:40:07;6.90;;;2.78;;
26502;SDS011;14177;51.520;6.764;2024-03-23T06:42:35;9.10;;;3.10;;
26502;SDS011;14177;51.520;6.764;2024-03-23T06:45:02;5.85;;;2.47;;
26502;SDS011;14177;51.520;6.764;2024-03-23T06:47:30;5.93;;;3.30;;
26502;SDS011;14177;51.520;6.764;2024-03-23T06:49:56;8.85;;;3.25;;
26502;SDS011;14177;51.520;6.764;2024-03-23T06:52:23;12.75;;;3.65;;
26502;SDS011;14177;51.520;6.764;2024-03-23T06:54:49;8.98;;;3.67;;
26502;SDS011;14177;51.520;6.764;2024-03-23T06:57:15;7.35;;;3.33;;
26502;SDS011;14177;51.520;6.764;2024-03-23T06:59:41;11.52;;;3.70;;
26502;SDS011;14177;51.520;6.764;2024-03-23T07:02:08;13.07;;;4.30;;
26502;SDS011;14177;51.520;6.764;2024-03-23T07:04:34;8.48;;;3.80;;
26502;SDS011;14177;51.520;6.764;2024-03-23T07:07:01;13.45;;;4.20;;
26502;SDS011;14177;51.520;6.764;2024-03-23T07:09:28;14.02;;;4.55;;
26502;SDS011;14177;51.520;6.764;2024-03-23T07:11:55;13.85;;;4.65;;
26502;SDS011;14177;51.520;6.764;2024-03-23T07:14:24;13.32;;;4.22;;
26502;SDS011;14177;51.520;6.764;2024-03-23T07:16:51;16.95;;;4.95;;
26502;SDS011;14177;51.520;6.764;2024-03-23T07:19:17;10.88;;;4.03;;
26502;SDS011;14177;51.520;6.764;2024-03-23T07:21:44;13.25;;;4.70;;
26502;SDS011;14177;51.520;6.764;2024-03-23T07:24:11;10.77;;;3.95;;
26502;SDS011;14177;51.520;6.764;2024-03-23T07:26:37;14.30;;;4.97;;
26502;SDS011;14177;51.520;6.764;2024-03-23T07:29:04;12.52;;;4.38;;
26502;SDS011;14177;51.520;6.764;2024-03-23T07:31:32;12.85;;;4.90;;
26502;SDS011;14177;51.520;6.764;2024-03-23T07:33:58;15.48;;;4.60;;
26502;SDS011;14177;51.520;6.764;2024-03-23T07:36:24;9.20;;;3.65;;
26502;SDS011;14177;51.520;6.764;2024-03-23T07:38:51;11.35;;;3.92;;
26502;SDS011;14177;51.520;6.764;2024-03-23T07:41:17;19.30;;;4.80;;
26502;SDS011;14177;51.520;6.764;2024-03-23T07:43:46;11.70;;;4.72;;
26502;SDS011;14177;51.520;6.764;2024-03-23T07:46:14;11.68;;;4.07;;
26502;SDS011;14177;51.520;6.764;2024-03-23T07:48:41;9.05;;;3.80;;
26502;SDS011;14177;51.520;6.764;2024-03-23T07:51:11;17.25;;;4.72;;
26502;SDS011;14177;51.520;6.764;2024-03-23T07:53:46;8.10;;;4.07;;
26502;SDS011;14177;51.520;6.764;2024-03-23T07:56:13;10.23;;;4.43;;
26502;SDS011;14177;51.520;6.764;2024-03-23T07:58:44;11.20;;;4.07;;
26502;SDS011;14177;51.520;6.764;2024-03-23T08:01:12;12.60;;;3.75;;
26502;SDS011;14177;51.520;6.764;2024-03-23T08:03:40;10.82;;;3.42;;
26502;SDS011;14177;51.520;6.764;2024-03-23T08:08:51;12.45;;;3.13;;
26502;SDS011;14177;51.520;6.764;2024-03-23T08:11:28;12.10;;;2.95;;
26502;SDS011;14177;51.520;6.764;2024-03-23T08:13:56;12.07;;;3.38;;
26502;SDS011;14177;51.520;6.764;2024-03-23T08:16:23;11.82;;;3.00;;
26502;SDS011;14177;51.520;6.764;2024-03-23T08:18:53;5.93;;;2.70;;
26502;SDS011;14177;51.520;6.764;2024-03-23T08:21:22;12.68;;;3.40;;
26502;SDS011;14177;51.520;6.764;2024-03-23T08:23:50;13.63;;;3.03;;
26502;SDS011;14177;51.520;6.764;2024-03-23T08:26:16;10.60;;;3.22;;
26502;SDS011;14177;51.520;6.764;2024-03-23T08:28:45;15.93;;;3.42;;
26502;SDS011;14177;51.520;6.764;2024-03-23T08:31:13;9.45;;;2.97;;
26502;SDS011;14177;51.520;6.764;2024-03-23T08:33:40;6.60;;;2.63;;
26502;SDS011;14177;51.520;6.764;2024-03-23T08:36:08;8.60;;;1.95;;
26502;SDS011;14177;51.520;6.764;2024-03-23T08:38:39;8.68;;;2.10;;
26502;SDS011;14177;51.520;6.764;2024-03-23T08:41:09;11.68;;;2.70;;
26502;SDS011;14177;51.520;6.764;2024-03-23T08:43:37;7.28;;;1.92;;
26502;SDS011;14177;51.520;6.764;2024-03-23T08:46:11;8.20;;;2.15;;
26502;SDS011;14177;51.520;6.764;2024-03-23T08:48:43;5.28;;;1.98;;
26502;SDS011;14177;51.520;6.764;2024-03-23T08:51:12;6.05;;;2.30;;
26502;SDS011;14177;51.520;6.764;2024-03-23T08:53:40;5.53;;;2.10;;
26502;SDS011;14177;51.520;6.764;2024-03-23T08:56:07;7.13;;;2.67;;
26502;SDS011;14177;51.520;6.764;2024-03-23T08:58:35;4.85;;;2.28;;
26502;SDS011;14177;51.520;6.764;2024-03-23T09:01:07;9.82;;;2.70;;
26502;SDS011;14177;51.520;6.764;2024-03-23T09:03:35;8.00;;;2.17;;
26502;SDS011;14177;51.520;6.764;2024-03-23T09:06:06;10.43;;;2.47;;
26502;SDS011;14177;51.520;6.764;2024-03-23T09:08:34;3.40;;;1.83;;
26502;SDS011;14177;51.520;6.764;2024-03-23T09:11:05;10.15;;;2.45;;
26502;SDS011;14177;51.520;6.764;2024-03-23T09:13:36;9.83;;;2.20;;
26502;SDS011;14177;51.520;6.764;2024-03-23T09:16:04;10.15;;;2.50;;
26502;SDS011;14177;51.520;6.764;2024-03-23T09:18:35;7.85;;;2.47;;
26502;SDS011;14177;51.520;6.764;2024-03-23T09:21:02;6.60;;;2.05;;
26502;SDS011;14177;51.520;6.764;2024-03-23T09:23:30;11.73;;;2.92;;
26502;SDS011;14177;51.520;6.764;2024-03-23T09:25:56;5.85;;;2.35;;
26502;SDS011;14177;51.520;6.764;2024-03-23T09:28:22;6.22;;;2.30;;
26502;SDS011;14177;51.520;6.764;2024-03-23T09:30:48;12.00;;;2.88;;
26502;SDS011;14177;51.520;6.764;2024-03-23T09:33:14;7.68;;;2.60;;
26502;SDS011;14177;51.520;6.764;2024-03-23T09:35:40;6.57;;;2.22;;
26502;SDS011;14177;51.520;6.764;2024-03-23T09:38:08;7.53;;;2.17;;
26502;SDS011;14177;51.520;6.764;2024-03-23T09:40:44;4.93;;;1.88;;
26502;SDS011;14177;51.520;6.764;2024-03-23T09:43:15;7.88;;;2.60;;
26502;SDS011;14177;51.520;6.764;2024-03-23T09:45:41;10.02;;;2.60;;
26502;SDS011;14177;51.520;6.764;2024-03-23T09:48:10;9.07;;;2.33;;
26502;SDS011;14177;51.520;6.764;2024-03-23T09:50:39;8.57;;;2.53;;
26502;SDS011;14177;51.520;6.764;2024-03-23T09:53:08;4.55;;;1.90;;
26502;SDS011;14177;51.520;6.764;2024-03-23T09:55:39;10.77;;;2.03;;
26502;SDS011;14177;51.520;6.764;2024-03-23T09:58:07;4.68;;;1.67;;
26502;SDS011;14177;51.520;6.764;2024-03-23T10:00:37;13.00;;;2.33;;
26502;SDS011;14177;51.520;6.764;2024-03-23T10:03:03;7.72;;;1.88;;
26502;SDS011;14177;51.520;6.764;2024-03-23T10:05:31;8.65;;;2.42;;
26502;SDS011;14177;51.520;6.764;2024-03-23T10:10:40;4.68;;;1.52;;
26502;SDS011;14177;51.520;6.764;2024-03-23T10:13:07;3.45;;;1.38;;
26502;SDS011;14177;51.520;6.764;2024-03-23T10:15:34;7.03;;;1.60;;
26502;SDS011;14177;51.520;6.764;2024-03-23T10:18:17;5.85;;;1.60;;
26502;SDS011;14177;51.520;6.764;2024-03-23T10:20:50;4.90;;;0.98;;
26502;SDS011;14177;51.520;6.764;2024-03-23T10:23:39;6.40;;;1.77;;
26502;SDS011;14177;51.520;6.764;2024-03-23T10:26:14;4.03;;;1.27;;
26502;SDS011;14177;51.520;6.764;2024-03-23T10:28:54;7.38;;;1.70;;
26502;SDS011;14177;51.520;6.764;2024-03-23T10:31:36;4.43;;;1.23;;
26502;SDS011;14177;51.520;6.764;2024-03-23T10:34:03;4.97;;;1.25;;
26502;SDS011;14177;51.520;6.764;2024-03-23T10:36:29;7.22;;;1.30;;
26502;SDS011;14177;51.520;6.764;2024-03-23T10:38:56;5.35;;;1.05;;
26502;SDS011;14177;51.520;6.764;2024-03-23T10:41:28;3.47;;;0.85;;
26502;SDS011;14177;51.520;6.764;2024-03-23T10:43:58;5.97;;;1.00;;
26502;SDS011;14177;51.520;6.764;2024-03-23T10:46:27;3.30;;;0.68;;
26502;SDS011;14177;51.520;6.764;2024-03-23T10:48:53;3.63;;;0.85;;
26502;SDS011;14177;51.520;6.764;2024-03-23T10:51:19;1.33;;;0.55;;
26502;SDS011;14177;51.520;6.764;2024-03-23T10:53:46;2.63;;;0.80;;
26502;SDS011;14177;51.520;6.764;2024-03-23T10:56:12;4.93;;;0.50;;
26502;SDS011;14177;51.520;6.764;2024-03-23T10:58:42;2.50;;;0.63;;
26502;SDS011;14177;51.520;6.764;2024-03-23T11:01:13;1.00;;;0.45;;
26502;SDS011;14177;51.520;6.764;2024-03-23T11:03:47;3.50;;;0.85;;
26502;SDS011;14177;51.520;6.764;2024-03-23T11:09:03;3.88;;;0.95;;
26502;SDS011;14177;51.520;6.764;2024-03-23T11:11:49;1.40;;;0.70;;
26502;SDS011;14177;51.520;6.764;2024-03-23T11:14:22;6.65;;;1.10;;
26502;SDS011;14177;51.520;6.764;2024-03-23T11:17:08;1.85;;;1.00;;
26502;SDS011;14177;51.520;6.764;2024-03-23T11:19:36;3.97;;;1.25;;
26502;SDS011;14177;51.520;6.764;2024-03-23T11:22:03;5.55;;;1.40;;
26502;SDS011;14177;51.520;6.764;2024-03-23T11:24:33;4.55;;;1.02;;
26502;SDS011;14177;51.520;6.764;2024-03-23T11:27:00;2.40;;;1.02;;
26502;SDS011;14177;51.520;6.764;2024-03-23T11:29:29;6.45;;;1.38;;
26502;SDS011;14177;51.520;6.764;2024-03-23T11:31:56;4.75;;;1.40;;
26502;SDS011;14177;51.520;6.764;2024-03-23T11:34:23;5.85;;;1.15;;
26502;SDS011;14177;51.520;6.764;2024-03-23T11:36:49;4.50;;;1.00;;
26502;SDS011;14177;51.520;6.764;2024-03-23T11:39:19;9.43;;;1.27;;
26502;SDS011;14177;51.520;6.764;2024-03-23T11:44:19;3.17;;;1.23;;
26502;SDS011;14177;51.520;6.764;2024-03-23T11:46:47;6.88;;;1.70;;
26502;SDS011;14177;51.520;6.764;2024-03-23T11:49:27;3.97;;;1.52;;
26502;SDS011;14177;51.520;6.764;2024-03-23T11:51:58;5.50;;;1.40;;
26502;SDS011;14177;51.520;6.764;2024-03-23T11:54:26;5.15;;;1.35;;
26502;SDS011;14177;51.520;6.764;2024-03-23T11:56:56;5.35;;;1.33;;
26502;SDS011;14177;51.520;6.764;2024-03-23T12:01:57;7.82;;;1.20;;
26502;SDS011;14177;51.520;6.764;2024-03-23T12:04:25;3.15;;;1.40;;
26502;SDS011;14177;51.520;6.764;2024-03-23T12:09:44;5.25;;;1.25;;
26502;SDS011;14177;51.520;6.764;2024-03-23T12:14:43;3.60;;;0.93;;
26502;SDS011;14177;51.520;6.764;2024-03-23T12:17:11;6.05;;;1.42;;
26502;SDS011;14177;51.520;6.764;2024-03-23T12:19:39;3.08;;;1.20;;
26502;SDS011;14177;51.520;6.764;2024-03-23T12:22:07;4.43;;;1.00;;
26502;SDS011;14177;51.520;6.764;2024-03-23T12:24:34;3.35;;;0.70;;
26502;SDS011;14177;51.520;6.764;2024-03-23T12:27:01;4.75;;;1.05;;
26502;SDS011;14177;51.520;6.764;2024-03-23T12:29:33;3.90;;;0.68;;
26502;SDS011;14177;51.520;6.764;2024-03-23T12:32:00;5.35;;;0.95;;
26502;SDS011;14177;51.520;6.764;2024-03-23T12:34:27;2.60;;;0.70;;
26502;SDS011;14177;51.520;6.764;2024-03-23T12:36:55;5.35;;;0.88;;
26502;SDS011;14177;51.520;6.764;2024-03-23T12:39:22;4.45;;;0.95;;
26502;SDS011;14177;51.520;6.764;2024-03-23T12:41:48;2.58;;;0.85;;
26502;SDS011;14177;51.520;6.764;2024-03-23T12:44:15;5.53;;;1.00;;
26502;SDS011;14177;51.520;6.764;2024-03-23T12:46:41;6.43;;;1.60;;
26502;SDS011;14177;51.520;6.764;2024-03-23T12:49:07;7.15;;;1.48;;
26502;SDS011;14177;51.520;6.764;2024-03-23T12:51:34;4.40;;;1.45;;
26502;SDS011;14177;51.520;6.764;2024-03-23T12:54:00;4.60;;;1.20;;
26502;SDS011;14177;51.520;6.764;2024-03-23T12:56:29;1.55;;;1.10;;
26502;SDS011;14177;51.520;6.764;2024-03-23T12:58:58;7.65;;;1.42;;
26502;SDS011;14177;51.520;6.764;2024-03-23T13:01:24;3.20;;;1.33;;
26502;SDS011;14177;51.520;6.764;2024-03-23T13:03:51;2.05;;;1.08;;
26502;SDS011;14177;51.520;6.764;2024-03-23T13:06:18;2.35;;;1.40;;
26502;SDS011;14177;51.520;6.764;2024-03-23T13:08:45;4.38;;;1.00;;
26502;SDS011;14177;51.520;6.764;2024-03-23T13:11:11;6.07;;;1.27;;
26502;SDS011;14177;51.520;6.764;2024-03-23T13:13:42;3.97;;;0.90;;
26502;SDS011;14177;51.520;6.764;2024-03-23T13:16:08;3.00;;;1.10;;
26502;SDS011;14177;51.520;6.764;2024-03-23T13:18:34;4.50;;;1.20;;
26502;SDS011;14177;51.520;6.764;2024-03-23T13:21:00;3.25;;;1.48;;
26502;SDS011;14177;51.520;6.764;2024-03-23T13:23:27;4.30;;;1.42;;
26502;SDS011;14177;51.520;6.764;2024-03-23T13:25:54;4.20;;;1.55;;
26502;SDS011;14177;51.520;6.764;2024-03-23T13:28:21;4.10;;;1.45;;
26502;SDS011;14177;51.520;6.764;2024-03-23T13:30:54;2.95;;;1.20;;
26502;SDS011;14177;51.520;6.764;2024-03-23T13:35:49;6.97;;;1.55;;
26502;SDS011;14177;51.520;6.764;2024-03-23T13:38:15;2.42;;;1.08;;
26502;SDS011;14177;51.520;6.764;2024-03-23T13:40:57;3.17;;;1.35;;
26502;SDS011;14177;51.520;6.764;2024-03-23T13:43:25;6.78;;;1.45;;
26502;SDS011;14177;51.520;6.764;2024-03-23T13:45:54;6.03;;;1.40;;
26502;SDS011;14177;51.520;6.764;2024-03-23T13:48:23;4.45;;;1.10;;
26502;SDS011;14177;51.520;6.764;2024-03-23T13:51:03;4.43;;;1.20;;
26502;SDS011;14177;51.520;6.764;2024-03-23T13:53:31;3.15;;;1.08;;
26502;SDS011;14177;51.520;6.764;2024-03-23T13:55:59;4.43;;;1.23;;
26502;SDS011;14177;51.520;6.764;2024-03-23T13:58:26;2.30;;;0.77;;
26502;SDS011;14177;51.520;6.764;2024-03-23T14:00:52;2.90;;;0.80;;
26502;SDS011;14177;51.520;6.764;2024-03-23T14:03:18;1.90;;;0.82;;
26502;SDS011;14177;51.520;6.764;2024-03-23T14:05:45;2.63;;;0.73;;
26502;SDS011;14177;51.520;6.764;2024-03-23T14:08:12;4.68;;;1.10;;
26502;SDS011;14177;51.520;6.764;2024-03-23T14:10:40;5.40;;;1.00;;
26502;SDS011;14177;51.520;6.764;2024-03-23T14:13:07;3.78;;;1.05;;
26502;SDS011;14177;51.520;6.764;2024-03-23T14:15:33;3.65;;;0.80;;
26502;SDS011;14177;51.520;6.764;2024-03-23T14:17:59;3.53;;;1.13;;
26502;SDS011;14177;51.520;6.764;2024-03-23T14:20:25;5.22;;;1.25;;
26502;SDS011;14177;51.520;6.764;2024-03-23T14:22:52;6.15;;;1.30;;
26502;SDS011;14177;51.520;6.764;2024-03-23T14:25:18;6.38;;;0.85;;
26502;SDS011;14177;51.520;6.764;2024-03-23T14:27:44;1.42;;;0.80;;
26502;SDS011;14177;51.520;6.764;2024-03-23T14:30:12;2.55;;;0.80;;
26502;SDS011;14177;51.520;6.764;2024-03-23T14:32:39;4.85;;;1.00;;
26502;SDS011;14177;51.520;6.764;2024-03-23T14:35:05;3.78;;;0.95;;
26502;SDS011;14177;51.520;6.764;2024-03-23T14:37:34;2.72;;;0.90;;
26502;SDS011;14177;51.520;6.764;2024-03-23T14:40:00;4.70;;;0.80;;
26502;SDS011;14177;51.520;6.764;2024-03-23T14:42:26;4.53;;;0.80;;
26502;SDS011;14177;51.520;6.764;2024-03-23T14:44:52;6.72;;;1.05;;
26502;SDS011;14177;51.520;6.764;2024-03-23T14:47:19;4.20;;;0.95;;
26502;SDS011;14177;51.520;6.764;2024-03-23T14:49:46;1.20;;;0.65;;
26502;SDS011;14177;51.520;6.764;2024-03-23T14:52:16;3.97;;;0.80;;
26502;SDS011;14177;51.520;6.764;2024-03-23T14:54:43;2.97;;;0.57;;
26502;SDS011;14177;51.520;6.764;2024-03-23T14:57:10;1.42;;;0.75;;
26502;SDS011;14177;51.520;6.764;2024-03-23T14:59:36;10.13;;;1.40;;
26502;SDS011;14177;51.520;6.764;2024-03-23T15:02:06;3.22;;;0.73;;
26502;SDS011;14177;51.520;6.764;2024-03-23T15:04:33;1.40;;;0.60;;
26502;SDS011;14177;51.520;6.764;2024-03-23T15:07:00;1.75;;;0.90;;
26502;SDS011;14177;51.520;6.764;2024-03-23T15:09:26;5.72;;;1.20;;
26502;SDS011;14177;51.520;6.764;2024-03-23T15:11:52;5.65;;;1.15;;
26502;SDS011;14177;51.520;6.764;2024-03-23T15:14:23;5.38;;;1.08;;
26502;SDS011;14177;51.520;6.764;2024-03-23T15:16:49;3.30;;;1.00;;
26502;SDS011;14177;51.520;6.764;2024-03-23T15:19:16;4.13;;;1.20;;
26502;SDS011;14177;51.520;6.764;2024-03-23T15:21:43;2.55;;;0.85;;
26502;SDS011;14177;51.520;6.764;2024-03-23T15:24:09;5.97;;;1.00;;
26502;SDS011;14177;51.520;6.764;2024-03-23T15:26:38;2.33;;;0.70;;
26502;SDS011;14177;51.520;6.764;2024-03-23T15:29:05;1.88;;;0.80;;
26502;SDS011;14177;51.520;6.764;2024-03-23T15:31:40;2.97;;;0.77;;
26502;SDS011;14177;51.520;6.764;2024-03-23T15:34:06;3.92;;;0.93;;
26502;SDS011;14177;51.520;6.764;2024-03-23T15:36:35;5.15;;;1.00;;
26502;SDS011;14177;51.520;6.764;2024-03-23T15:39:05;4.00;;;1.50;;
26502;SDS011;14177;51.520;6.764;2024-03-23T15:41:31;4.68;;;1.30;;
26502;SDS011;14177;51.520;6.764;2024-03-23T15:43:59;7.10;;;1.40;;
26502;SDS011;14177;51.520;6.764;2024-03-23T15:46:25;4.43;;;1.20;;
26502;SDS011;14177;51.520;6.764;2024-03-23T15:48:51;8.23;;;1.30;;
26502;SDS011;14177;51.520;6.764;2024-03-23T15:51:17;2.30;;;0.93;;
26502;SDS011;14177;51.520;6.764;2024-03-23T15:53:43;1.55;;;0.85;;
26502;SDS011;14177;51.520;6.764;2024-03-23T15:56:09;3.08;;;1.15;;
26502;SDS011;14177;51.520;6.764;2024-03-23T15:58:35;5.30;;;0.80;;
26502;SDS011;14177;51.520;6.764;2024-03-23T16:01:02;7.10;;;1.08;;